Time;durP1;ratioP1;P1;durP2;ratioP2;P2;SDS_P1;SDS_P2;PMS_P1;PMS_P2;Temp;Humidity;BMP_temperature;BMP_pressure;BME280_temperature;BME280_humidity;BME280_pressure;Samples;Min_cycle;Max_cycle;Signal;HPM_P1;HPM_P2
2021/09/22 00:00:25;;;;;;;7.47;5.57;;;359.20;2329.60;;;;;;4974059;28;20472;-81
2021/09/22 00:02:51;;;;;;;9.30;6.15;;;359.20;2329.60;;;;;;4973341;28;20074;-81
2021/09/22 00:05:18;;;;;;;10.95;6.65;;;359.20;2329.60;;;;;;4975167;28;20454;-80
2021/09/22 00:07:44;;;;;;;13.77;6.38;;;359.20;2329.60;;;;;;4974929;28;20050;-81
2021/09/22 00:10:14;;;;;;;9.10;6.13;;;359.20;2329.60;;;;;;4973530;28;20490;-80
2021/09/22 00:12:40;;;;;;;7.68;5.43;;;359.20;2329.60;;;;;;4975221;28;20030;-80
2021/09/22 00:15:09;;;;;;;11.75;6.57;;;359.20;2329.60;;;;;;4973486;28;20035;-81
2021/09/22 00:17:35;;;;;;;8.82;6.35;;;359.30;2329.60;;;;;;4973283;28;20031;-81
2021/09/22 00:20:01;;;;;;;8.52;6.10;;;359.20;2329.60;;;;;;4973442;28;20066;-81
2021/09/22 00:22:26;;;;;;;15.18;6.13;;;359.20;2329.60;;;;;;4973648;28;20089;-80
2021/09/22 00:24:52;;;;;;;10.88;6.60;;;359.10;2329.60;;;;;;4972630;28;20054;-81
2021/09/22 00:27:18;;;;;;;9.90;6.18;;;359.10;2329.60;;;;;;4973927;28;20093;-81
2021/09/22 00:29:44;;;;;;;9.00;6.43;;;359.10;2329.60;;;;;;4974348;28;20079;-80
2021/09/22 00:32:10;;;;;;;9.80;6.68;;;359.20;2329.60;;;;;;4974656;28;20402;-82
2021/09/22 00:34:36;;;;;;;9.85;7.00;;;359.20;2329.60;;;;;;4974364;28;20038;-81
2021/09/22 00:37:04;;;;;;;10.38;6.72;;;359.10;2329.60;;;;;;4975732;28;20038;-81
2021/09/22 00:39:31;;;;;;;12.32;6.85;;;359.10;2329.60;;;;;;4975833;28;20422;-82
2021/09/22 00:41:58;;;;;;;12.75;6.97;;;359.10;2329.60;;;;;;4976745;28;20054;-81
2021/09/22 00:44:23;;;;;;;9.27;7.07;;;359.10;2329.60;;;;;;4976263;28;20034;-82
2021/09/22 00:46:49;;;;;;;9.77;6.32;;;359.10;2329.60;;;;;;4974098;28;20037;-81
2021/09/22 00:49:15;;;;;;;11.05;6.50;;;359.10;2329.60;;;;;;4973036;28;20038;-81
2021/09/22 00:51:41;;;;;;;10.57;6.47;;;359.10;2329.60;;;;;;4975416;28;20038;-81
2021/09/22 00:54:07;;;;;;;10.43;6.90;;;359.10;2329.60;;;;;;4974789;28;20033;-82
2021/09/22 00:56:32;;;;;;;9.95;6.47;;;359.10;2329.60;;;;;;4973766;28;20057;-81
2021/09/22 00:58:59;;;;;;;10.82;6.15;;;359.00;2329.60;;;;;;4974848;28;20038;-81
2021/09/22 01:01:24;;;;;;;10.13;6.63;;;359.00;2329.60;;;;;;4973614;28;20039;-81
2021/09/22 01:03:50;;;;;;;11.70;7.15;;;359.00;2329.60;;;;;;4973444;28;20047;-81
2021/09/22 01:06:16;;;;;;;17.23;7.53;;;359.00;2329.60;;;;;;4974202;28;20459;-81
2021/09/22 01:08:42;;;;;;;10.50;6.60;;;358.90;2329.60;;;;;;4974997;28;20066;-82
2021/09/22 01:11:08;;;;;;;11.75;7.03;;;358.90;2329.60;;;;;;4974868;28;20031;-81
2021/09/22 01:13:34;;;;;;;10.90;7.45;;;358.90;2329.60;;;;;;4976701;28;20019;-81
2021/09/22 01:16:01;;;;;;;14.23;6.88;;;358.90;2329.60;;;;;;4978478;28;20022;-82
2021/09/22 01:18:26;;;;;;;9.55;7.28;;;358.80;2329.60;;;;;;4975239;28;20081;-81
2021/09/22 01:20:56;;;;;;;10.40;6.60;;;358.80;2329.60;;;;;;4973406;28;20110;-81
2021/09/22 01:23:23;;;;;;;10.80;6.53;;;358.90;2329.60;;;;;;4974348;28;20372;-81
2021/09/22 01:25:50;;;;;;;10.13;6.32;;;358.90;2329.60;;;;;;4974506;28;20062;-82
2021/09/22 01:28:19;;;;;;;8.82;6.68;;;358.90;2329.60;;;;;;4969840;28;20078;-82
2021/09/22 01:30:46;;;;;;;10.15;6.43;;;359.00;2329.60;;;;;;4970293;28;20118;-81
2021/09/22 01:33:16;;;;;;;8.48;6.10;;;359.00;2329.60;;;;;;4954244;28;20105;-81
2021/09/22 01:35:45;;;;;;;10.18;6.22;;;359.00;2329.60;;;;;;4956104;28;20035;-81
2021/09/22 01:38:16;;;;;;;9.40;6.78;;;359.00;2329.60;;;;;;4954608;29;20030;-81
2021/09/22 01:40:53;;;;;;;9.80;6.55;;;359.00;2329.60;;;;;;4957392;28;20063;-83
2021/09/22 01:43:19;;;;;;;11.85;7.32;;;359.00;2329.60;;;;;;4954686;28;20082;-82
2021/09/22 01:45:45;;;;;;;9.57;5.70;;;359.00;2329.60;;;;;;4954786;28;20062;-82
2021/09/22 01:48:11;;;;;;;8.65;6.60;;;359.00;2329.60;;;;;;4954143;28;20042;-81
2021/09/22 01:50:36;;;;;;;11.90;7.82;;;359.00;2329.60;;;;;;4955692;28;20028;-81
2021/09/22 01:53:03;;;;;;;12.10;8.25;;;359.00;2329.60;;;;;;4954424;28;20034;-82
2021/09/22 01:55:29;;;;;;;15.50;8.05;;;359.00;2329.60;;;;;;4957186;29;20491;-81
2021/09/22 01:57:58;;;;;;;16.23;9.02;;;359.00;2329.60;;;;;;4958077;29;20030;-82
2021/09/22 02:00:24;;;;;;;15.90;7.95;;;359.00;2329.60;;;;;;4973752;28;20099;-83
2021/09/22 02:02:50;;;;;;;15.63;9.23;;;358.90;2329.60;;;;;;4959340;28;20157;-81
2021/09/22 02:05:15;;;;;;;13.32;8.15;;;358.90;2329.60;;;;;;4957389;29;20130;-79
2021/09/22 02:07:41;;;;;;;15.80;8.75;;;359.00;2329.60;;;;;;4957363;29;20484;-78
2021/09/22 02:10:07;;;;;;;12.90;7.20;;;359.00;2329.60;;;;;;4958117;28;20023;-78
2021/09/22 02:12:33;;;;;;;13.48;8.27;;;359.00;2329.60;;;;;;4958591;28;20035;-79
2021/09/22 02:14:59;;;;;;;14.68;8.68;;;359.00;2329.60;;;;;;4956573;29;20023;-78
2021/09/22 02:17:25;;;;;;;12.35;7.53;;;359.00;2329.60;;;;;;4973109;28;20498;-78
2021/09/22 02:19:50;;;;;;;13.18;8.43;;;359.00;2329.60;;;;;;4972238;28;20058;-78
2021/09/22 02:22:19;;;;;;;14.50;9.82;;;359.00;2329.60;;;;;;4972669;28;20122;-78
2021/09/22 02:24:45;;;;;;;13.00;8.40;;;359.00;2329.60;;;;;;4955422;29;20047;-77
2021/09/22 02:27:13;;;;;;;12.00;8.48;;;359.00;2329.60;;;;;;4971980;28;20032;-78
2021/09/22 02:29:40;;;;;;;12.82;7.47;;;359.00;2329.60;;;;;;4957189;28;20471;-78
2021/09/22 02:32:07;;;;;;;13.32;8.45;;;359.00;2329.60;;;;;;4956063;29;20479;-78
2021/09/22 02:34:33;;;;;;;10.00;6.85;;;359.00;2329.60;;;;;;4955934;28;20027;-78
2021/09/22 02:36:59;;;;;;;12.55;8.60;;;359.00;2329.60;;;;;;4971861;28;20094;-78
2021/09/22 02:39:25;;;;;;;12.73;8.27;;;359.00;2329.60;;;;;;4973058;28;20042;-78
2021/09/22 02:41:50;;;;;;;14.38;9.45;;;359.00;2329.60;;;;;;4956645;29;20082;-78
2021/09/22 02:44:16;;;;;;;12.48;7.15;;;359.00;2329.60;;;;;;4958083;28;20031;-78
2021/09/22 02:46:43;;;;;;;14.90;9.95;;;359.00;2329.60;;;;;;4958001;28;20130;-78
2021/09/22 02:49:08;;;;;;;19.73;9.57;;;359.00;2329.60;;;;;;4972041;28;20151;-77
2021/09/22 02:51:34;;;;;;;14.40;9.48;;;359.00;2329.60;;;;;;4972407;28;20130;-78
2021/09/22 02:54:00;;;;;;;13.80;9.73;;;358.90;2329.60;;;;;;4972191;28;20099;-77
2021/09/22 02:56:26;;;;;;;16.92;9.77;;;358.80;2329.60;;;;;;4957467;28;20079;-76
2021/09/22 02:58:52;;;;;;;17.40;9.85;;;358.80;2329.60;;;;;;4958228;28;20039;-77
2021/09/22 03:01:18;;;;;;;15.82;10.60;;;358.80;2329.60;;;;;;4955335;29;20023;-80
2021/09/22 03:03:43;;;;;;;13.35;8.20;;;358.80;2329.60;;;;;;4970708;28;20110;-77
2021/09/22 03:06:10;;;;;;;15.45;9.48;;;358.80;2329.60;;;;;;4971693;28;20395;-78
2021/09/22 03:08:38;;;;;;;14.40;9.65;;;358.80;2329.60;;;;;;4956879;28;20027;-78
2021/09/22 03:11:06;;;;;;;15.02;9.13;;;358.80;2329.60;;;;;;4957265;28;20027;-78
2021/09/22 03:13:32;;;;;;;14.27;9.57;;;358.80;2329.60;;;;;;4963229;28;20026;-79
2021/09/22 03:15:59;;;;;;;11.90;8.18;;;358.70;2329.60;;;;;;4975144;28;20027;-78
2021/09/22 03:18:24;;;;;;;13.93;9.63;;;358.80;2329.60;;;;;;4975618;28;20023;-78
2021/09/22 03:20:50;;;;;;;16.35;8.93;;;358.80;2329.60;;;;;;4975723;28;20102;-76
2021/09/22 03:23:16;;;;;;;14.43;9.13;;;358.80;2329.60;;;;;;4975883;28;20077;-81
2021/09/22 03:25:42;;;;;;;15.02;8.02;;;358.80;2329.60;;;;;;4975818;28;20097;-79
2021/09/22 03:28:08;;;;;;;11.98;7.88;;;358.80;2329.60;;;;;;4975697;28;20026;-78
2021/09/22 03:30:34;;;;;;;12.93;7.53;;;358.80;2329.60;;;;;;4974591;28;20130;-79
2021/09/22 03:33:00;;;;;;;11.38;7.38;;;358.80;2329.60;;;;;;4974455;28;20027;-80
2021/09/22 03:35:25;;;;;;;13.27;7.50;;;358.90;2329.60;;;;;;4973968;28;20399;-78
2021/09/22 03:37:51;;;;;;;11.57;8.48;;;358.90;2329.60;;;;;;4975990;28;20026;-78
2021/09/22 03:40:17;;;;;;;11.82;7.97;;;359.00;2329.60;;;;;;4975736;28;20081;-78
2021/09/22 03:42:43;;;;;;;12.90;8.75;;;359.00;2329.60;;;;;;4974601;28;20023;-77
2021/09/22 03:45:09;;;;;;;10.57;7.68;;;359.00;2329.60;;;;;;4974185;28;20130;-79
2021/09/22 03:47:35;;;;;;;12.40;7.97;;;359.00;2329.60;;;;;;4976016;28;20471;-80
2021/09/22 03:50:01;;;;;;;13.02;6.97;;;359.00;2329.60;;;;;;4973846;28;20038;-80
2021/09/22 03:52:28;;;;;;;11.88;7.88;;;359.10;2329.60;;;;;;4976496;28;20105;-79
2021/09/22 03:54:55;;;;;;;11.50;8.05;;;359.10;2329.60;;;;;;4975378;28;20023;-80
2021/09/22 03:57:21;;;;;;;11.23;7.05;;;359.10;2329.60;;;;;;4975553;28;20026;-79
2021/09/22 03:59:47;;;;;;;11.02;6.70;;;359.10;2329.60;;;;;;4975877;28;20117;-79
2021/09/22 04:02:13;;;;;;;13.35;7.32;;;359.20;2329.60;;;;;;4975297;28;20086;-79
2021/09/22 04:04:38;;;;;;;11.85;7.10;;;359.20;2329.60;;;;;;4975331;28;20045;-78
2021/09/22 04:07:04;;;;;;;11.75;7.68;;;359.20;2329.60;;;;;;4976235;28;20027;-80
2021/09/22 04:09:30;;;;;;;10.93;7.10;;;359.20;2329.60;;;;;;4987409;28;20031;-81
2021/09/22 04:11:56;;;;;;;15.63;8.13;;;359.20;2329.60;;;;;;4989235;28;20056;-78
2021/09/22 04:14:22;;;;;;;14.80;8.02;;;359.20;2329.60;;;;;;4974193;28;20113;-79
2021/09/22 04:16:48;;;;;;;12.65;7.43;;;359.20;2329.60;;;;;;4974756;28;20066;-78
2021/09/22 04:19:13;;;;;;;11.77;7.35;;;359.20;2329.60;;;;;;4974610;28;20030;-77
2021/09/22 04:21:39;;;;;;;10.40;7.38;;;359.20;2329.60;;;;;;4975640;28;20445;-81
2021/09/22 04:24:05;;;;;;;15.52;6.78;;;359.20;2329.60;;;;;;4974796;28;20430;-77
2021/09/22 04:26:31;;;;;;;10.32;7.18;;;359.20;2329.60;;;;;;4973606;28;20450;-80
2021/09/22 04:28:58;;;;;;;13.38;8.50;;;359.20;2329.60;;;;;;4974395;28;20470;-80
2021/09/22 04:31:23;;;;;;;10.15;7.22;;;359.20;2329.60;;;;;;4974924;28;20029;-80
2021/09/22 04:33:50;;;;;;;12.07;7.60;;;359.20;2329.60;;;;;;4974230;28;20073;-80
2021/09/22 04:36:16;;;;;;;10.55;8.23;;;359.20;2329.60;;;;;;4974814;28;20475;-81
2021/09/22 04:38:42;;;;;;;13.52;8.88;;;359.20;2329.60;;;;;;4974667;28;20176;-81
2021/09/22 04:41:08;;;;;;;17.35;8.75;;;359.20;2329.60;;;;;;4974275;28;20030;-80
2021/09/22 04:43:34;;;;;;;11.65;6.90;;;359.20;2329.60;;;;;;4973563;28;20034;-79
2021/09/22 04:45:59;;;;;;;11.82;7.47;;;359.20;2329.60;;;;;;4974684;28;20034;-79
2021/09/22 04:48:25;;;;;;;12.45;7.70;;;359.20;2329.60;;;;;;4974418;28;20027;-78
2021/09/22 04:50:52;;;;;;;11.23;7.53;;;359.20;2329.60;;;;;;4974651;28;20476;-80
2021/09/22 04:53:18;;;;;;;13.77;6.60;;;359.20;2329.60;;;;;;4976282;28;20031;-77
2021/09/22 04:55:44;;;;;;;16.50;6.85;;;359.10;2329.60;;;;;;4974242;28;20027;-78
2021/09/22 04:58:09;;;;;;;10.65;6.47;;;359.10;2329.60;;;;;;4983498;28;20053;-77
2021/09/22 05:00:36;;;;;;;9.70;6.40;;;359.00;2329.60;;;;;;4978309;28;20065;-77
2021/09/22 05:03:05;;;;;;;12.55;6.63;;;359.00;2329.60;;;;;;4974747;28;20050;-78
2021/09/22 05:05:31;;;;;;;9.38;6.32;;;359.00;2329.60;;;;;;4972824;28;20046;-78
2021/09/22 05:07:59;;;;;;;16.85;6.97;;;359.00;2329.60;;;;;;4973008;28;20439;-77
2021/09/22 05:10:26;;;;;;;11.88;6.68;;;359.00;2329.60;;;;;;4974287;28;20030;-81
2021/09/22 05:12:52;;;;;;;9.88;7.05;;;359.00;2329.60;;;;;;4973751;28;20114;-77
2021/09/22 05:15:18;;;;;;;9.95;7.03;;;359.00;2329.60;;;;;;4975229;28;20073;-77
2021/09/22 05:17:43;;;;;;;11.52;6.75;;;359.00;2329.60;;;;;;4974126;28;20081;-77
2021/09/22 05:20:10;;;;;;;13.35;9.18;;;359.10;2329.60;;;;;;4973863;28;20497;-76
2021/09/22 05:22:35;;;;;;;10.70;7.75;;;359.00;2329.60;;;;;;4973955;28;20023;-77
2021/09/22 05:25:02;;;;;;;11.95;7.57;;;359.10;2329.60;;;;;;4974625;28;20046;-77
2021/09/22 05:27:27;;;;;;;12.98;7.25;;;359.10;2329.60;;;;;;4978219;28;20029;-81
2021/09/22 05:29:54;;;;;;;18.58;8.38;;;359.20;2329.60;;;;;;4977054;28;20399;-79
2021/09/22 05:32:22;;;;;;;13.27;9.10;;;359.20;2329.60;;;;;;4977964;28;20556;-78
2021/09/22 05:34:47;;;;;;;12.80;7.50;;;359.20;2329.60;;;;;;4976131;28;20031;-78
2021/09/22 05:37:13;;;;;;;13.82;7.32;;;359.20;2329.60;;;;;;4976672;28;20503;-79
2021/09/22 05:39:39;;;;;;;12.00;7.80;;;359.20;2329.60;;;;;;4976516;28;20392;-77
2021/09/22 05:42:06;;;;;;;12.27;8.07;;;359.20;2329.60;;;;;;4976997;28;20121;-77
2021/09/22 05:44:32;;;;;;;14.70;8.10;;;359.20;2329.60;;;;;;4977334;28;20030;-79
2021/09/22 05:46:58;;;;;;;13.25;8.15;;;359.10;2329.60;;;;;;4978134;28;20019;-77
2021/09/22 05:49:23;;;;;;;10.73;7.72;;;359.00;2329.60;;;;;;4977068;28;20033;-78
2021/09/22 05:51:49;;;;;;;10.13;6.80;;;359.00;2329.60;;;;;;4992595;28;20431;-77
2021/09/22 05:54:16;;;;;;;11.50;8.10;;;359.10;2329.60;;;;;;4977978;28;20111;-78
2021/09/22 05:56:42;;;;;;;12.25;7.68;;;359.10;2329.60;;;;;;4976433;28;20034;-80
2021/09/22 05:59:08;;;;;;;11.70;7.63;;;359.20;2329.60;;;;;;4977662;28;20027;-78
2021/09/22 06:01:34;;;;;;;11.95;8.20;;;359.20;2329.60;;;;;;4977135;28;20509;-78
2021/09/22 06:04:00;;;;;;;14.63;7.72;;;359.20;2329.60;;;;;;4976084;28;20081;-80
2021/09/22 06:06:28;;;;;;;11.93;8.27;;;359.30;2329.60;;;;;;4977124;28;20444;-79
2021/09/22 06:08:54;;;;;;;16.10;7.60;;;359.30;2329.60;;;;;;4977384;28;20065;-78
2021/09/22 06:11:20;;;;;;;11.20;8.00;;;359.30;2329.60;;;;;;4976978;28;20034;-79
2021/09/22 06:13:49;;;;;;;11.65;8.27;;;359.30;2329.60;;;;;;4975772;28;20023;-78
2021/09/22 06:16:14;;;;;;;12.95;7.03;;;384.00;2329.60;;;;;;4976072;28;20058;-79
2021/09/22 06:18:40;;;;;;;11.05;7.28;;;384.00;2329.60;;;;;;4976695;28;20109;-78
2021/09/22 06:21:06;;;;;;;10.40;8.05;;;384.00;2329.60;;;;;;4977902;28;20590;-78
2021/09/22 06:23:32;;;;;;;11.98;7.68;;;384.00;2329.60;;;;;;4977119;28;20114;-77
2021/09/22 06:25:57;;;;;;;12.07;7.05;;;384.00;2329.60;;;;;;4977160;28;20042;-77
2021/09/22 06:28:23;;;;;;;9.50;6.47;;;384.00;2329.60;;;;;;4976859;28;20027;-77
2021/09/22 06:30:49;;;;;;;10.13;7.10;;;384.10;2329.60;;;;;;4977363;28;20030;-79
2021/09/22 06:33:14;;;;;;;10.73;6.82;;;384.10;2329.60;;;;;;4977069;28;20042;-78
2021/09/22 06:35:43;;;;;;;11.93;7.95;;;384.20;2329.60;;;;;;4977016;28;20035;-78
2021/09/22 06:38:08;;;;;;;13.05;7.93;;;384.30;2329.60;;;;;;4976900;28;20069;-78
2021/09/22 06:40:34;;;;;;;12.23;6.32;;;384.30;2329.60;;;;;;4977075;28;20022;-78
2021/09/22 06:43:04;;;;;;;9.90;7.28;;;384.30;2329.60;;;;;;4976433;28;20027;-78
2021/09/22 06:45:30;;;;;;;11.27;7.30;;;384.40;2329.60;;;;;;4977358;28;20043;-78
2021/09/22 06:47:57;;;;;;;12.45;7.30;;;384.50;2329.60;;;;;;4976610;28;20060;-78
2021/09/22 06:50:22;;;;;;;11.80;7.72;;;384.60;2329.60;;;;;;4976019;28;20285;-78
2021/09/22 06:52:48;;;;;;;12.02;7.72;;;384.70;2329.60;;;;;;4974897;28;20035;-78
2021/09/22 06:55:16;;;;;;;11.00;7.38;;;384.80;2329.60;;;;;;4976138;28;20034;-78
2021/09/22 06:57:43;;;;;;;7.45;5.88;;;384.80;2304.00;;;;;;4975052;28;20391;-78
2021/09/22 07:00:11;;;;;;;9.77;7.13;;;384.80;2176.00;;;;;;4976078;28;20031;-78
2021/09/22 07:02:37;;;;;;;8.57;5.93;;;384.90;2201.60;;;;;;4975735;28;20054;-78
2021/09/22 07:05:08;;;;;;;9.57;6.05;;;409.60;2227.20;;;;;;4975522;28;20038;-79
2021/09/22 07:07:35;;;;;;;8.50;5.82;;;409.60;2150.40;;;;;;4976579;28;20085;-79
2021/09/22 07:10:02;;;;;;;7.45;5.20;;;409.70;2073.60;;;;;;4976938;28;20062;-78
2021/09/22 07:12:28;;;;;;;7.85;5.10;;;409.70;2099.20;;;;;;4976532;28;20109;-79
2021/09/22 07:14:54;;;;;;;7.40;5.30;;;409.70;2073.60;;;;;;4976690;28;20078;-79
2021/09/22 07:17:20;;;;;;;8.43;5.90;;;409.70;2022.40;;;;;;4975650;28;20514;-85
2021/09/22 07:19:46;;;;;;;8.82;5.80;;;409.70;1996.80;;;;;;4978088;28;20050;-78
2021/09/22 07:22:12;;;;;;;8.95;5.45;;;409.90;1996.80;;;;;;4978214;28;20077;-79
2021/09/22 07:24:38;;;;;;;8.05;5.13;;;409.90;1920.00;;;;;;4980347;28;20035;-78
2021/09/22 07:27:04;;;;;;;9.18;5.00;;;409.90;1868.80;;;;;;4975605;28;20066;-78
2021/09/22 07:29:30;;;;;;;10.35;5.95;;;409.80;1843.20;;;;;;4974151;28;20026;-78
2021/09/22 07:31:56;;;;;;;8.32;4.68;;;409.70;1843.20;;;;;;4977628;28;20038;-78
2021/09/22 07:34:23;;;;;;;8.07;5.43;;;409.70;1894.40;;;;;;4983961;28;20046;-78
2021/09/22 07:36:50;;;;;;;6.38;4.60;;;409.80;1868.80;;;;;;4977800;28;20030;-79
2021/09/22 07:39:17;;;;;;;8.73;4.85;;;409.80;1868.80;;;;;;4984501;28;20035;-78
2021/09/22 07:41:43;;;;;;;10.85;6.05;;;409.80;1894.40;;;;;;4979152;28;20435;-78
2021/09/22 07:44:09;;;;;;;9.25;4.75;;;409.90;1843.20;;;;;;4976593;28;20383;-78
2021/09/22 07:46:35;;;;;;;10.13;6.30;;;409.80;1843.20;;;;;;4975378;28;20113;-78
2021/09/22 07:49:01;;;;;;;7.57;4.72;;;409.80;1843.20;;;;;;4975119;28;20458;-78
2021/09/22 07:51:27;;;;;;;12.38;5.05;;;409.80;1817.60;;;;;;4980043;28;20034;-78
2021/09/22 07:53:54;;;;;;;7.53;5.05;;;409.70;1792.00;;;;;;4978797;28;20061;-77
2021/09/22 07:56:21;;;;;;;8.20;4.80;;;409.70;1817.60;;;;;;4986672;28;20019;-78
2021/09/22 07:58:48;;;;;;;8.93;5.25;;;409.80;1817.60;;;;;;4990658;28;20039;-80
2021/09/22 08:01:14;;;;;;;7.85;5.38;;;409.90;1792.00;;;;;;4981741;28;20045;-79
2021/09/22 08:03:40;;;;;;;7.85;4.78;;;410.00;1792.00;;;;;;4978323;28;20046;-78
2021/09/22 08:06:07;;;;;;;9.40;5.28;;;410.10;1766.40;;;;;;4977984;28;20044;-82
2021/09/22 08:08:36;;;;;;;8.20;5.45;;;410.10;1766.40;;;;;;4978906;28;20501;-81
2021/09/22 08:11:04;;;;;;;7.88;4.38;;;410.20;1792.00;;;;;;4978083;28;20043;-81
2021/09/22 08:13:33;;;;;;;7.55;4.57;;;410.20;1715.20;;;;;;4992867;28;20033;-80
2021/09/22 08:15:59;;;;;;;7.20;4.57;;;410.40;1715.20;;;;;;4990015;28;20031;-78
2021/09/22 08:18:24;;;;;;;6.82;4.60;;;410.50;1689.60;;;;;;4981886;28;20049;-80
2021/09/22 08:20:55;;;;;;;6.93;4.47;;;435.20;1689.60;;;;;;4984507;28;20378;-80
2021/09/22 08:23:22;;;;;;;7.32;4.85;;;435.30;1715.20;;;;;;4985630;28;20451;-81
2021/09/22 08:25:48;;;;;;;7.70;4.50;;;435.20;1689.60;;;;;;4974956;28;20121;-83
2021/09/22 08:28:14;;;;;;;7.20;4.70;;;410.50;1715.20;;;;;;4974864;28;20481;-80
2021/09/22 08:30:40;;;;;;;10.77;5.20;;;435.30;1715.20;;;;;;4973244;28;20106;-79
2021/09/22 08:33:06;;;;;;;7.32;4.95;;;435.30;1715.20;;;;;;4977764;28;20028;-82
2021/09/22 08:35:32;;;;;;;8.38;6.03;;;435.30;1715.20;;;;;;4973035;28;20031;-80
2021/09/22 08:37:58;;;;;;;7.60;5.68;;;435.30;1740.80;;;;;;4975021;28;20035;-79
2021/09/22 08:40:24;;;;;;;9.63;6.57;;;435.20;1715.20;;;;;;4964667;28;20033;-78
2021/09/22 08:42:50;;;;;;;8.63;4.95;;;435.20;1766.40;;;;;;4975221;28;20035;-79
2021/09/22 08:45:16;;;;;;;7.70;4.68;;;435.20;1766.40;;;;;;4972079;28;20102;-79
2021/09/22 08:47:44;;;;;;;10.85;5.43;;;435.20;1766.40;;;;;;4971049;28;20751;-81
2021/09/22 08:50:11;;;;;;;7.95;4.43;;;410.50;1740.80;;;;;;4968822;28;20024;-78
2021/09/22 08:52:37;;;;;;;8.13;5.20;;;410.40;1766.40;;;;;;4953166;29;20130;-79
2021/09/22 08:55:05;;;;;;;7.70;5.07;;;410.40;1766.40;;;;;;4952861;29;20166;-82
2021/09/22 08:57:32;;;;;;;8.90;4.72;;;410.40;1792.00;;;;;;4953288;28;20031;-79
2021/09/22 08:59:57;;;;;;;9.70;5.15;;;410.50;1843.20;;;;;;4952936;29;20078;-79
2021/09/22 09:02:24;;;;;;;8.40;5.32;;;435.20;1843.20;;;;;;4952601;28;20400;-83
2021/09/22 09:05:12;;;;;;;11.20;5.22;;;435.20;1792.00;;;;;;4953950;28;20073;-78
2021/09/22 09:08:03;;;;;;;10.75;5.80;;;435.30;1843.20;;;;;;4961506;28;20038;-81
2021/09/22 09:10:34;;;;;;;6.30;4.30;;;410.50;1817.60;;;;;;4967074;28;20086;-79
2021/09/22 09:13:07;;;;;;;5.40;3.17;;;410.50;1715.20;;;;;;4967926;28;20042;-80
2021/09/22 09:16:00;;;;;;;;;;;410.40;1664.00;;;;;;4986564;28;20031;-79
2021/09/22 09:18:33;;;;;;;6.25;3.67;;;410.50;1715.20;;;;;;4942213;29;19938;-78
2021/09/22 09:21:00;;;;;;;6.90;4.10;;;410.40;1715.20;;;;;;4935315;29;20129;-80
2021/09/22 09:23:26;;;;;;;6.30;3.55;;;410.20;1715.20;;;;;;4950898;29;20530;-80
2021/09/22 09:26:00;;;;;;;5.43;3.47;;;410.20;1715.20;;;;;;4951273;29;20043;-82
2021/09/22 09:28:34;;;;;;;7.45;4.03;;;410.20;1715.20;;;;;;4954119;29;20554;-78
2021/09/22 09:31:16;;;;;;;6.65;4.10;;;410.10;1740.80;;;;;;4937513;29;20027;-79
2021/09/22 09:34:08;;;;;;;6.30;3.72;;;410.10;1740.80;;;;;;4933496;29;20036;-79
2021/09/22 09:36:50;;;;;;;4.88;3.83;;;410.10;1715.20;;;;;;4909904;29;20092;-80
2021/09/22 09:39:25;;;;;;;5.83;3.90;;;410.00;1740.80;;;;;;4895280;29;20069;-80
2021/09/22 09:41:58;;;;;;;8.05;3.80;;;410.00;1766.40;;;;;;4892336;29;20040;-82
2021/09/22 09:44:30;;;;;;;6.03;4.35;;;409.90;1792.00;;;;;;4886151;29;20040;-80
2021/09/22 09:47:10;;;;;;;7.63;4.38;;;409.80;1792.00;;;;;;4892395;29;20043;-81
2021/09/22 09:49:37;;;;;;;7.75;5.60;;;409.80;1817.60;;;;;;4868320;29;20045;-81
2021/09/22 09:52:04;;;;;;;6.90;4.22;;;409.70;1792.00;;;;;;4876226;29;20029;-79
2021/09/22 09:54:36;;;;;;;10.20;3.40;;;409.60;1792.00;;;;;;4871970;29;20068;-82
2021/09/22 09:57:11;;;;;;;10.77;6.20;;;409.70;1817.60;;;;;;4911853;29;20034;-81
2021/09/22 09:59:44;;;;;;;6.22;4.05;;;409.70;1843.20;;;;;;4927949;29;20079;-78
2021/09/22 10:02:23;;;;;;;7.30;4.47;;;409.70;1843.20;;;;;;4925590;29;20040;-78
2021/09/22 10:04:48;;;;;;;7.40;4.45;;;409.70;1817.60;;;;;;4910245;29;20044;-79
2021/09/22 10:07:14;;;;;;;6.85;4.63;;;409.60;1843.20;;;;;;4913753;29;20070;-79
2021/09/22 10:09:41;;;;;;;7.50;3.75;;;409.60;1868.80;;;;;;4929271;29;20031;-79
2021/09/22 10:12:07;;;;;;;7.63;4.03;;;384.90;1843.20;;;;;;4918446;29;20043;-79
2021/09/22 10:14:33;;;;;;;6.38;3.88;;;384.80;1894.40;;;;;;4988894;28;20027;-82
2021/09/22 10:17:00;;;;;;;5.93;3.90;;;384.90;1894.40;;;;;;4993170;28;20127;-81
2021/09/22 10:19:28;;;;;;;7.28;4.50;;;384.80;1920.00;;;;;;4978676;28;20062;-82
2021/09/22 10:21:54;;;;;;;8.68;4.78;;;384.80;1945.60;;;;;;4975832;28;20026;-82
2021/09/22 10:24:22;;;;;;;7.38;5.55;;;384.80;1945.60;;;;;;4975510;28;20039;-82
2021/09/22 10:26:48;;;;;;;11.07;5.07;;;384.80;1971.20;;;;;;4976385;28;20084;-82
2021/09/22 10:29:27;;;;;;;6.68;3.85;;;384.80;1920.00;;;;;;4976524;28;20022;-81
2021/09/22 10:31:56;;;;;;;7.75;4.30;;;384.80;1920.00;;;;;;4977558;28;20546;-82
2021/09/22 10:34:43;;;;;;;4.50;3.78;;;384.70;1894.40;;;;;;4979600;28;20034;-82
2021/09/22 10:37:32;;;;;;;7.60;4.20;;;384.70;1920.00;;;;;;4976768;28;20630;-81
2021/09/22 10:39:58;;;;;;;7.68;5.65;;;384.70;1920.00;;;;;;4980576;28;20154;-82
2021/09/22 10:42:31;;;;;;;6.90;5.43;;;384.70;1920.00;;;;;;4987956;28;20023;-82
2021/09/22 10:45:15;;;;;;;6.55;3.55;;;384.80;1945.60;;;;;;4987333;28;20035;-79
2021/09/22 10:47:41;;;;;;;9.75;6.25;;;384.70;1894.40;;;;;;4992567;28;20030;-80
2021/09/22 10:50:08;;;;;;;16.98;10.20;;;384.70;1945.60;;;;;;4989133;28;20029;-81
2021/09/22 10:52:40;;;;;;;10.32;6.55;;;384.70;1945.60;;;;;;4988510;28;20122;-81
2021/09/22 10:55:16;;;;;;;23.13;14.73;;;384.80;1920.00;;;;;;4987736;28;20035;-81
2021/09/22 10:57:48;;;;;;;19.27;10.40;;;384.80;1894.40;;;;;;4980661;28;20110;-80
2021/09/22 11:00:15;;;;;;;21.15;13.18;;;384.90;1920.00;;;;;;4977987;28;20053;-81
2021/09/22 11:02:53;;;;;;;11.77;8.35;;;384.90;1894.40;;;;;;4975899;28;20134;-81
2021/09/22 11:05:28;;;;;;;8.30;5.60;;;384.90;1843.20;;;;;;4985365;28;20150;-81
2021/09/22 11:07:56;;;;;;;6.60;4.32;;;384.80;1843.20;;;;;;4958772;29;20055;-82
2021/09/22 11:10:46;;;;;;;7.00;4.70;;;384.90;1843.20;;;;;;4956845;28;20519;-81
2021/09/22 11:13:28;;;;;;;5.15;4.30;;;384.80;1843.20;;;;;;4956273;29;20028;-82
2021/09/22 11:16:06;;;;;;;11.55;6.97;;;384.90;1868.80;;;;;;4956622;29;20031;-74
2021/09/22 11:18:32;;;;;;;4.72;3.17;;;409.60;1920.00;;;;;;4956047;29;20057;-81
2021/09/22 11:21:01;;;;;;;6.97;4.82;;;384.90;1843.20;;;;;;4968142;28;20035;-80
2021/09/22 11:23:28;;;;;;;7.70;5.25;;;384.90;1817.60;;;;;;4974155;28;20278;-80
2021/09/22 11:26:02;;;;;;;6.88;3.95;;;384.90;1868.80;;;;;;4974263;28;20047;-83
2021/09/22 11:28:28;;;;;;;5.75;4.22;;;384.90;1843.20;;;;;;4975146;28;20054;-82
2021/09/22 11:30:54;;;;;;;10.13;5.03;;;384.90;1868.80;;;;;;4975118;28;20475;-83
2021/09/22 11:33:21;;;;;;;5.40;3.67;;;384.90;1868.80;;;;;;4974866;28;20038;-83
2021/09/22 11:35:47;;;;;;;5.88;4.15;;;409.60;1920.00;;;;;;4974796;28;20129;-81
2021/09/22 11:38:14;;;;;;;6.18;4.78;;;409.70;1894.40;;;;;;4974882;28;20156;-82
2021/09/22 11:40:40;;;;;;;9.95;4.68;;;409.70;1920.00;;;;;;4971370;28;20023;-82
2021/09/22 11:43:21;;;;;;;7.63;4.70;;;409.70;1894.40;;;;;;4971457;28;20054;-81
2021/09/22 11:46:00;;;;;;;8.23;3.90;;;409.70;1894.40;;;;;;4974798;28;20520;-82
2021/09/22 11:48:29;;;;;;;5.65;4.00;;;409.70;1894.40;;;;;;4974446;28;20118;-82
2021/09/22 11:50:56;;;;;;;6.53;3.50;;;384.90;1817.60;;;;;;4975488;28;20046;-82
2021/09/22 11:53:26;;;;;;;6.28;3.92;;;384.80;1843.20;;;;;;4974469;28;20082;-81
2021/09/22 11:55:52;;;;;;;6.82;3.80;;;384.70;1868.80;;;;;;4976211;28;20061;-82
2021/09/22 11:58:21;;;;;;;5.68;4.20;;;384.60;1868.80;;;;;;4974422;28;20130;-82
2021/09/22 12:00:53;;;;;;;8.70;3.80;;;384.60;1894.40;;;;;;4974149;28;20534;-85
2021/09/22 12:03:22;;;;;;;8.05;4.80;;;384.50;1894.40;;;;;;4976345;28;20062;-82
2021/09/22 12:06:05;;;;;;;9.32;5.35;;;384.40;1920.00;;;;;;4974981;28;20094;-82
2021/09/22 12:08:31;;;;;;;7.05;5.72;;;384.30;1945.60;;;;;;4976258;28;20046;-84
2021/09/22 12:10:58;;;;;;;6.68;4.35;;;384.20;2022.40;;;;;;4977862;28;20026;-83
2021/09/22 12:13:24;;;;;;;9.45;5.43;;;384.20;2022.40;;;;;;4981425;28;20023;-85
2021/09/22 12:15:58;;;;;;;5.95;4.35;;;384.20;2022.40;;;;;;4995532;28;20062;-85